sensor_id;sensor_type;location;lat;lon;timestamp;P1;durP1;ratioP1;P2;durP2;ratioP2
26634;SDS011;14490;54.208;37.686;2023-04-25T00:01:07;7.50;;;6.25;;
26634;SDS011;14490;54.208;37.686;2023-04-25T00:03:38;7.20;;;5.47;;
26634;SDS011;14490;54.208;37.686;2023-04-25T00:06:05;10.05;;;6.53;;
26634;SDS011;14490;54.208;37.686;2023-04-25T00:08:33;9.32;;;7.07;;
26634;SDS011;14490;54.208;37.686;2023-04-25T00:11:01;9.02;;;5.70;;
26634;SDS011;14490;54.208;37.686;2023-04-25T00:13:28;11.45;;;5.78;;
26634;SDS011;14490;54.208;37.686;2023-04-25T00:15:55;10.32;;;6.40;;
26634;SDS011;14490;54.208;37.686;2023-04-25T00:18:24;17.15;;;6.47;;
26634;SDS011;14490;54.208;37.686;2023-04-25T00:20:54;9.50;;;5.88;;
26634;SDS011;14490;54.208;37.686;2023-04-25T00:23:21;8.70;;;5.38;;
26634;SDS011;14490;54.208;37.686;2023-04-25T00:25:49;8.90;;;5.40;;
26634;SDS011;14490;54.208;37.686;2023-04-25T00:28:17;8.07;;;6.47;;
26634;SDS011;14490;54.208;37.686;2023-04-25T00:30:44;7.85;;;5.28;;
26634;SDS011;14490;54.208;37.686;2023-04-25T00:33:11;7.97;;;6.13;;
26634;SDS011;14490;54.208;37.686;2023-04-25T00:35:40;11.65;;;5.65;;
26634;SDS011;14490;54.208;37.686;2023-04-25T00:38:08;9.95;;;5.93;;
26634;SDS011;14490;54.208;37.686;2023-04-25T00:40:36;7.00;;;5.18;;
26634;SDS011;14490;54.208;37.686;2023-04-25T00:43:03;5.95;;;5.35;;
26634;SDS011;14490;54.208;37.686;2023-04-25T00:45:31;12.10;;;5.28;;
26634;SDS011;14490;54.208;37.686;2023-04-25T00:47:58;9.38;;;6.00;;
26634;SDS011;14490;54.208;37.686;2023-04-25T00:50:26;6.22;;;5.70;;
26634;SDS011;14490;54.208;37.686;2023-04-25T00:52:55;7.30;;;5.80;;
26634;SDS011;14490;54.208;37.686;2023-04-25T00:55:22;7.22;;;4.90;;
26634;SDS011;14490;54.208;37.686;2023-04-25T00:57:50;7.72;;;4.93;;
26634;SDS011;14490;54.208;37.686;2023-04-25T01:00:18;7.35;;;6.25;;
26634;SDS011;14490;54.208;37.686;2023-04-25T01:02:46;6.32;;;5.45;;
26634;SDS011;14490;54.208;37.686;2023-04-25T01:05:14;8.85;;;5.22;;
26634;SDS011;14490;54.208;37.686;2023-04-25T01:07:44;8.57;;;5.60;;
26634;SDS011;14490;54.208;37.686;2023-04-25T01:10:13;6.65;;;5.78;;
26634;SDS011;14490;54.208;37.686;2023-04-25T01:12:41;13.60;;;6.22;;
26634;SDS011;14490;54.208;37.686;2023-04-25T01:15:09;7.80;;;5.28;;
26634;SDS011;14490;54.208;37.686;2023-04-25T01:17:37;5.55;;;4.55;;
26634;SDS011;14490;54.208;37.686;2023-04-25T01:20:05;7.75;;;5.47;;
26634;SDS011;14490;54.208;37.686;2023-04-25T01:22:37;10.70;;;5.37;;
26634;SDS011;14490;54.208;37.686;2023-04-25T01:25:05;9.45;;;5.78;;
26634;SDS011;14490;54.208;37.686;2023-04-25T01:27:34;10.10;;;6.15;;
26634;SDS011;14490;54.208;37.686;2023-04-25T01:30:03;7.72;;;6.10;;
26634;SDS011;14490;54.208;37.686;2023-04-25T01:32:32;10.95;;;5.30;;
26634;SDS011;14490;54.208;37.686;2023-04-25T01:35:03;12.05;;;5.93;;
26634;SDS011;14490;54.208;37.686;2023-04-25T01:37:34;8.00;;;5.10;;
26634;SDS011;14490;54.208;37.686;2023-04-25T01:40:04;8.55;;;6.15;;
26634;SDS011;14490;54.208;37.686;2023-04-25T01:42:34;6.53;;;4.90;;
26634;SDS011;14490;54.208;37.686;2023-04-25T01:45:04;8.00;;;5.90;;
26634;SDS011;14490;54.208;37.686;2023-04-25T01:47:32;6.18;;;5.20;;
26634;SDS011;14490;54.208;37.686;2023-04-25T01:50:01;10.82;;;6.13;;
26634;SDS011;14490;54.208;37.686;2023-04-25T01:52:28;6.40;;;5.80;;
26634;SDS011;14490;54.208;37.686;2023-04-25T01:54:57;9.43;;;5.90;;
26634;SDS011;14490;54.208;37.686;2023-04-25T01:57:28;6.78;;;4.63;;
26634;SDS011;14490;54.208;37.686;2023-04-25T01:59:57;6.55;;;5.65;;
26634;SDS011;14490;54.208;37.686;2023-04-25T02:02:28;8.30;;;5.75;;
26634;SDS011;14490;54.208;37.686;2023-04-25T02:04:55;6.53;;;5.28;;
26634;SDS011;14490;54.208;37.686;2023-04-25T02:07:22;8.27;;;6.28;;
26634;SDS011;14490;54.208;37.686;2023-04-25T02:09:50;10.23;;;5.05;;
26634;SDS011;14490;54.208;37.686;2023-04-25T02:12:19;8.10;;;5.80;;
26634;SDS011;14490;54.208;37.686;2023-04-25T02:14:46;6.40;;;4.85;;
26634;SDS011;14490;54.208;37.686;2023-04-25T02:17:13;8.95;;;4.88;;
26634;SDS011;14490;54.208;37.686;2023-04-25T02:19:41;14.35;;;6.07;;
26634;SDS011;14490;54.208;37.686;2023-04-25T02:22:08;11.20;;;5.97;;
26634;SDS011;14490;54.208;37.686;2023-04-25T02:24:36;32.78;;;7.03;;
26634;SDS011;14490;54.208;37.686;2023-04-25T02:27:03;21.48;;;6.35;;
26634;SDS011;14490;54.208;37.686;2023-04-25T02:29:32;7.82;;;5.15;;
26634;SDS011;14490;54.208;37.686;2023-04-25T02:32:00;6.28;;;5.45;;
26634;SDS011;14490;54.208;37.686;2023-04-25T02:34:27;11.23;;;5.20;;
26634;SDS011;14490;54.208;37.686;2023-04-25T02:36:55;10.10;;;5.38;;
26634;SDS011;14490;54.208;37.686;2023-04-25T02:39:22;8.18;;;5.72;;
26634;SDS011;14490;54.208;37.686;2023-04-25T02:41:50;5.97;;;5.05;;
26634;SDS011;14490;54.208;37.686;2023-04-25T02:44:18;8.98;;;5.70;;
26634;SDS011;14490;54.208;37.686;2023-04-25T02:46:47;8.70;;;4.75;;
26634;SDS011;14490;54.208;37.686;2023-04-25T02:49:14;7.78;;;5.72;;
26634;SDS011;14490;54.208;37.686;2023-04-25T02:51:42;10.18;;;4.85;;
26634;SDS011;14490;54.208;37.686;2023-04-25T02:54:09;5.72;;;5.03;;
26634;SDS011;14490;54.208;37.686;2023-04-25T02:56:36;12.38;;;5.63;;
26634;SDS011;14490;54.208;37.686;2023-04-25T02:59:04;6.13;;;5.18;;
26634;SDS011;14490;54.208;37.686;2023-04-25T03:01:31;7.07;;;5.95;;
26634;SDS011;14490;54.208;37.686;2023-04-25T03:04:00;8.07;;;5.65;;
26634;SDS011;14490;54.208;37.686;2023-04-25T03:06:27;8.10;;;5.13;;
26634;SDS011;14490;54.208;37.686;2023-04-25T03:08:56;5.78;;;4.80;;
26634;SDS011;14490;54.208;37.686;2023-04-25T03:11:25;8.82;;;6.55;;
26634;SDS011;14490;54.208;37.686;2023-04-25T03:13:53;6.15;;;5.43;;
26634;SDS011;14490;54.208;37.686;2023-04-25T03:16:20;13.07;;;6.68;;
26634;SDS011;14490;54.208;37.686;2023-04-25T03:18:48;6.40;;;5.80;;
26634;SDS011;14490;54.208;37.686;2023-04-25T03:21:17;26.08;;;5.82;;
26634;SDS011;14490;54.208;37.686;2023-04-25T03:23:44;7.93;;;4.97;;
26634;SDS011;14490;54.208;37.686;2023-04-25T03:26:12;9.82;;;5.93;;
26634;SDS011;14490;54.208;37.686;2023-04-25T03:28:39;12.30;;;6.10;;
26634;SDS011;14490;54.208;37.686;2023-04-25T03:31:06;8.25;;;5.78;;
26634;SDS011;14490;54.208;37.686;2023-04-25T03:33:36;6.30;;;5.10;;
26634;SDS011;14490;54.208;37.686;2023-04-25T03:36:04;8.85;;;5.55;;
26634;SDS011;14490;54.208;37.686;2023-04-25T03:41:40;9.77;;;5.97;;
26634;SDS011;14490;54.208;37.686;2023-04-25T03:44:08;13.48;;;8.27;;
26634;SDS011;14490;54.208;37.686;2023-04-25T03:46:39;15.70;;;7.18;;
26634;SDS011;14490;54.208;37.686;2023-04-25T03:49:14;12.45;;;7.35;;
26634;SDS011;14490;54.208;37.686;2023-04-25T03:51:42;9.07;;;6.18;;
26634;SDS011;14490;54.208;37.686;2023-04-25T03:54:10;33.85;;;7.63;;
26634;SDS011;14490;54.208;37.686;2023-04-25T03:56:38;19.98;;;8.30;;
26634;SDS011;14490;54.208;37.686;2023-04-25T03:59:06;17.80;;;8.40;;
26634;SDS011;14490;54.208;37.686;2023-04-25T04:01:34;17.70;;;9.82;;
26634;SDS011;14490;54.208;37.686;2023-04-25T04:04:01;24.75;;;8.13;;
26634;SDS011;14490;54.208;37.686;2023-04-25T04:06:29;18.65;;;8.25;;
26634;SDS011;14490;54.208;37.686;2023-04-25T04:08:57;16.33;;;9.13;;
26634;SDS011;14490;54.208;37.686;2023-04-25T04:11:27;16.73;;;9.93;;
26634;SDS011;14490;54.208;37.686;2023-04-25T04:13:56;24.88;;;10.68;;
26634;SDS011;14490;54.208;37.686;2023-04-25T04:16:23;17.98;;;9.10;;
26634;SDS011;14490;54.208;37.686;2023-04-25T04:18:51;21.45;;;9.30;;
26634;SDS011;14490;54.208;37.686;2023-04-25T04:21:18;17.77;;;8.65;;
26634;SDS011;14490;54.208;37.686;2023-04-25T04:23:46;22.10;;;8.48;;
26634;SDS011;14490;54.208;37.686;2023-04-25T04:26:13;17.20;;;8.82;;
26634;SDS011;14490;54.208;37.686;2023-04-25T04:28:41;16.55;;;9.38;;
26634;SDS011;14490;54.208;37.686;2023-04-25T04:31:10;19.33;;;8.75;;
26634;SDS011;14490;54.208;37.686;2023-04-25T04:33:42;23.63;;;9.05;;
26634;SDS011;14490;54.208;37.686;2023-04-25T04:36:09;17.17;;;8.23;;
26634;SDS011;14490;54.208;37.686;2023-04-25T04:38:37;17.20;;;8.25;;
26634;SDS011;14490;54.208;37.686;2023-04-25T04:41:05;18.40;;;8.18;;
26634;SDS011;14490;54.208;37.686;2023-04-25T04:43:33;19.67;;;10.35;;
26634;SDS011;14490;54.208;37.686;2023-04-25T04:46:00;20.40;;;8.45;;
26634;SDS011;14490;54.208;37.686;2023-04-25T04:48:31;21.15;;;8.43;;
26634;SDS011;14490;54.208;37.686;2023-04-25T04:50:59;22.88;;;8.57;;
26634;SDS011;14490;54.208;37.686;2023-04-25T04:53:27;20.98;;;8.48;;
26634;SDS011;14490;54.208;37.686;2023-04-25T04:56:05;19.80;;;8.57;;
26634;SDS011;14490;54.208;37.686;2023-04-25T04:58:33;18.17;;;8.68;;
26634;SDS011;14490;54.208;37.686;2023-04-25T05:01:01;22.88;;;8.45;;
26634;SDS011;14490;54.208;37.686;2023-04-25T05:03:30;31.23;;;8.10;;
26634;SDS011;14490;54.208;37.686;2023-04-25T05:05:58;22.58;;;9.07;;
26634;SDS011;14490;54.208;37.686;2023-04-25T05:08:25;23.25;;;8.82;;
26634;SDS011;14490;54.208;37.686;2023-04-25T05:10:52;22.35;;;8.30;;
26634;SDS011;14490;54.208;37.686;2023-04-25T05:13:20;28.10;;;9.23;;
26634;SDS011;14490;54.208;37.686;2023-04-25T05:15:48;21.23;;;9.05;;
26634;SDS011;14490;54.208;37.686;2023-04-25T05:18:15;23.75;;;7.80;;
26634;SDS011;14490;54.208;37.686;2023-04-25T05:20:44;18.40;;;8.48;;
26634;SDS011;14490;54.208;37.686;2023-04-25T05:23:15;18.90;;;8.70;;
26634;SDS011;14490;54.208;37.686;2023-04-25T05:25:42;21.58;;;9.65;;
26634;SDS011;14490;54.208;37.686;2023-04-25T05:28:10;25.95;;;7.13;;
26634;SDS011;14490;54.208;37.686;2023-04-25T05:30:39;24.58;;;10.68;;
26634;SDS011;14490;54.208;37.686;2023-04-25T05:33:06;45.30;;;12.05;;
26634;SDS011;14490;54.208;37.686;2023-04-25T05:35:34;22.27;;;9.25;;
26634;SDS011;14490;54.208;37.686;2023-04-25T05:38:03;20.40;;;7.85;;
26634;SDS011;14490;54.208;37.686;2023-04-25T05:40:31;24.00;;;8.55;;
26634;SDS011;14490;54.208;37.686;2023-04-25T05:42:59;23.80;;;8.27;;
26634;SDS011;14490;54.208;37.686;2023-04-25T05:45:26;26.02;;;9.43;;
26634;SDS011;14490;54.208;37.686;2023-04-25T05:47:54;31.83;;;11.95;;
26634;SDS011;14490;54.208;37.686;2023-04-25T05:50:21;38.45;;;15.13;;
26634;SDS011;14490;54.208;37.686;2023-04-25T05:52:49;43.88;;;13.07;;
26634;SDS011;14490;54.208;37.686;2023-04-25T05:55:18;41.45;;;12.70;;
26634;SDS011;14490;54.208;37.686;2023-04-25T05:57:45;24.30;;;9.57;;
26634;SDS011;14490;54.208;37.686;2023-04-25T06:00:13;26.42;;;7.68;;
26634;SDS011;14490;54.208;37.686;2023-04-25T06:02:42;20.95;;;6.68;;
26634;SDS011;14490;54.208;37.686;2023-04-25T06:05:15;13.00;;;5.82;;
26634;SDS011;14490;54.208;37.686;2023-04-25T06:07:43;15.55;;;6.38;;
26634;SDS011;14490;54.208;37.686;2023-04-25T06:10:10;13.25;;;5.82;;
26634;SDS011;14490;54.208;37.686;2023-04-25T06:12:39;35.25;;;6.47;;
26634;SDS011;14490;54.208;37.686;2023-04-25T06:15:07;16.45;;;6.47;;
26634;SDS011;14490;54.208;37.686;2023-04-25T06:17:35;15.10;;;5.00;;
26634;SDS011;14490;54.208;37.686;2023-04-25T06:20:02;8.48;;;4.78;;
26634;SDS011;14490;54.208;37.686;2023-04-25T06:22:31;13.05;;;5.13;;
26634;SDS011;14490;54.208;37.686;2023-04-25T06:24:59;9.85;;;5.30;;
26634;SDS011;14490;54.208;37.686;2023-04-25T06:27:29;9.65;;;4.45;;
26634;SDS011;14490;54.208;37.686;2023-04-25T06:29:57;15.00;;;5.47;;
26634;SDS011;14490;54.208;37.686;2023-04-25T06:32:25;14.05;;;4.45;;
26634;SDS011;14490;54.208;37.686;2023-04-25T06:34:55;12.85;;;4.68;;
26634;SDS011;14490;54.208;37.686;2023-04-25T06:37:23;14.15;;;4.68;;
26634;SDS011;14490;54.208;37.686;2023-04-25T06:39:50;11.90;;;3.85;;
26634;SDS011;14490;54.208;37.686;2023-04-25T06:42:17;14.23;;;4.18;;
26634;SDS011;14490;54.208;37.686;2023-04-25T06:44:48;21.38;;;4.63;;
26634;SDS011;14490;54.208;37.686;2023-04-25T06:47:16;7.13;;;3.33;;
26634;SDS011;14490;54.208;37.686;2023-04-25T06:49:44;11.05;;;3.42;;
26634;SDS011;14490;54.208;37.686;2023-04-25T06:52:11;4.88;;;2.55;;
26634;SDS011;14490;54.208;37.686;2023-04-25T06:54:39;5.35;;;2.58;;
26634;SDS011;14490;54.208;37.686;2023-04-25T06:57:06;5.93;;;3.25;;
26634;SDS011;14490;54.208;37.686;2023-04-25T06:59:40;3.67;;;2.78;;
26634;SDS011;14490;54.208;37.686;2023-04-25T07:02:08;20.65;;;2.63;;
26634;SDS011;14490;54.208;37.686;2023-04-25T07:04:36;8.07;;;2.30;;
26634;SDS011;14490;54.208;37.686;2023-04-25T07:07:04;6.53;;;2.10;;
26634;SDS011;14490;54.208;37.686;2023-04-25T07:09:31;3.13;;;2.00;;
26634;SDS011;14490;54.208;37.686;2023-04-25T07:11:59;4.93;;;2.20;;
26634;SDS011;14490;54.208;37.686;2023-04-25T07:14:27;7.28;;;2.40;;
26634;SDS011;14490;54.208;37.686;2023-04-25T07:16:55;12.43;;;2.75;;
26634;SDS011;14490;54.208;37.686;2023-04-25T07:19:23;8.75;;;2.33;;
26634;SDS011;14490;54.208;37.686;2023-04-25T07:21:53;4.80;;;2.08;;
26634;SDS011;14490;54.208;37.686;2023-04-25T07:24:20;10.23;;;2.85;;
26634;SDS011;14490;54.208;37.686;2023-04-25T07:26:48;5.38;;;2.60;;
26634;SDS011;14490;54.208;37.686;2023-04-25T07:29:17;9.02;;;2.97;;
26634;SDS011;14490;54.208;37.686;2023-04-25T07:31:45;4.07;;;2.60;;
26634;SDS011;14490;54.208;37.686;2023-04-25T07:34:12;4.68;;;2.60;;
26634;SDS011;14490;54.208;37.686;2023-04-25T07:36:39;7.32;;;3.83;;
26634;SDS011;14490;54.208;37.686;2023-04-25T07:39:08;12.63;;;4.63;;
26634;SDS011;14490;54.208;37.686;2023-04-25T07:41:36;10.20;;;5.22;;
26634;SDS011;14490;54.208;37.686;2023-04-25T07:44:03;9.73;;;5.20;;
26634;SDS011;14490;54.208;37.686;2023-04-25T07:46:30;10.70;;;5.72;;
26634;SDS011;14490;54.208;37.686;2023-04-25T07:48:58;8.52;;;5.40;;
26634;SDS011;14490;54.208;37.686;2023-04-25T07:51:25;11.27;;;4.10;;
26634;SDS011;14490;54.208;37.686;2023-04-25T07:53:53;11.80;;;4.85;;
26634;SDS011;14490;54.208;37.686;2023-04-25T07:56:22;5.43;;;3.88;;
26634;SDS011;14490;54.208;37.686;2023-04-25T07:58:49;7.50;;;4.00;;
26634;SDS011;14490;54.208;37.686;2023-04-25T08:01:16;17.02;;;3.40;;
26634;SDS011;14490;54.208;37.686;2023-04-25T08:03:46;10.15;;;3.22;;
26634;SDS011;14490;54.208;37.686;2023-04-25T08:06:15;8.32;;;3.08;;
26634;SDS011;14490;54.208;37.686;2023-04-25T08:08:44;5.65;;;1.95;;
26634;SDS011;14490;54.208;37.686;2023-04-25T08:11:12;9.77;;;2.42;;
26634;SDS011;14490;54.208;37.686;2023-04-25T08:13:41;4.25;;;2.30;;
26634;SDS011;14490;54.208;37.686;2023-04-25T08:16:08;12.07;;;3.28;;
26634;SDS011;14490;54.208;37.686;2023-04-25T08:18:36;11.77;;;2.05;;
26634;SDS011;14490;54.208;37.686;2023-04-25T08:21:03;7.07;;;2.20;;
26634;SDS011;14490;54.208;37.686;2023-04-25T08:23:31;5.07;;;2.10;;
26634;SDS011;14490;54.208;37.686;2023-04-25T08:25:59;2.83;;;2.13;;
26634;SDS011;14490;54.208;37.686;2023-04-25T08:28:26;5.78;;;2.33;;
26634;SDS011;14490;54.208;37.686;2023-04-25T08:30:58;10.68;;;1.88;;
26634;SDS011;14490;54.208;37.686;2023-04-25T08:33:26;6.68;;;2.20;;
26634;SDS011;14490;54.208;37.686;2023-04-25T08:35:57;2.85;;;1.50;;
26634;SDS011;14490;54.208;37.686;2023-04-25T08:38:25;3.30;;;2.22;;
26634;SDS011;14490;54.208;37.686;2023-04-25T08:40:52;10.35;;;2.10;;
26634;SDS011;14490;54.208;37.686;2023-04-25T08:43:21;5.35;;;1.63;;
26634;SDS011;14490;54.208;37.686;2023-04-25T08:45:51;12.18;;;1.70;;
26634;SDS011;14490;54.208;37.686;2023-04-25T08:48:21;3.30;;;1.80;;
26634;SDS011;14490;54.208;37.686;2023-04-25T08:50:54;3.50;;;1.42;;
26634;SDS011;14490;54.208;37.686;2023-04-25T08:53:25;8.85;;;2.22;;
26634;SDS011;14490;54.208;37.686;2023-04-25T08:55:55;2.35;;;1.90;;
26634;SDS011;14490;54.208;37.686;2023-04-25T08:58:24;27.02;;;3.63;;
26634;SDS011;14490;54.208;37.686;2023-04-25T09:00:54;14.13;;;2.58;;
26634;SDS011;14490;54.208;37.686;2023-04-25T09:03:23;6.22;;;1.90;;
26634;SDS011;14490;54.208;37.686;2023-04-25T09:05:51;4.68;;;2.20;;
26634;SDS011;14490;54.208;37.686;2023-04-25T09:08:18;8.60;;;2.03;;
26634;SDS011;14490;54.208;37.686;2023-04-25T09:10:45;3.50;;;1.95;;
26634;SDS011;14490;54.208;37.686;2023-04-25T09:13:13;3.35;;;2.10;;
26634;SDS011;14490;54.208;37.686;2023-04-25T09:15:46;6.28;;;1.83;;
26634;SDS011;14490;54.208;37.686;2023-04-25T09:18:21;2.67;;;1.63;;
26634;SDS011;14490;54.208;37.686;2023-04-25T09:20:52;13.88;;;2.55;;
26634;SDS011;14490;54.208;37.686;2023-04-25T09:23:20;2.90;;;2.03;;
26634;SDS011;14490;54.208;37.686;2023-04-25T09:26:06;3.70;;;1.95;;
26634;SDS011;14490;54.208;37.686;2023-04-25T09:28:35;8.27;;;2.58;;
26634;SDS011;14490;54.208;37.686;2023-04-25T09:31:05;7.40;;;2.40;;
26634;SDS011;14490;54.208;37.686;2023-04-25T09:33:34;1.88;;;1.67;;
26634;SDS011;14490;54.208;37.686;2023-04-25T09:36:06;12.65;;;1.98;;
26634;SDS011;14490;54.208;37.686;2023-04-25T09:38:39;2.85;;;1.55;;
26634;SDS011;14490;54.208;37.686;2023-04-25T09:41:09;6.53;;;2.03;;
26634;SDS011;14490;54.208;37.686;2023-04-25T09:43:37;3.25;;;1.98;;
26634;SDS011;14490;54.208;37.686;2023-04-25T09:46:07;7.45;;;2.05;;
26634;SDS011;14490;54.208;37.686;2023-04-25T09:48:38;7.23;;;2.00;;
26634;SDS011;14490;54.208;37.686;2023-04-25T09:51:22;3.45;;;1.42;;
26634;SDS011;14490;54.208;37.686;2023-04-25T09:53:53;5.22;;;2.10;;
26634;SDS011;14490;54.208;37.686;2023-04-25T09:56:20;5.72;;;1.83;;
26634;SDS011;14490;54.208;37.686;2023-04-25T09:58:50;5.18;;;1.77;;
26634;SDS011;14490;54.208;37.686;2023-04-25T10:01:20;2.85;;;2.38;;
26634;SDS011;14490;54.208;37.686;2023-04-25T10:03:49;6.63;;;2.20;;
26634;SDS011;14490;54.208;37.686;2023-04-25T10:06:19;3.13;;;1.73;;
26634;SDS011;14490;54.208;37.686;2023-04-25T10:08:47;7.30;;;2.10;;
26634;SDS011;14490;54.208;37.686;2023-04-25T10:11:20;5.20;;;1.98;;
26634;SDS011;14490;54.208;37.686;2023-04-25T10:13:51;4.53;;;3.13;;
26634;SDS011;14490;54.208;37.686;2023-04-25T10:16:20;4.22;;;2.13;;
26634;SDS011;14490;54.208;37.686;2023-04-25T10:18:50;4.82;;;2.00;;
26634;SDS011;14490;54.208;37.686;2023-04-25T10:21:18;5.60;;;2.22;;
26634;SDS011;14490;54.208;37.686;2023-04-25T10:23:48;3.90;;;2.60;;
26634;SDS011;14490;54.208;37.686;2023-04-25T10:26:16;9.02;;;4.60;;
26634;SDS011;14490;54.208;37.686;2023-04-25T10:28:56;17.70;;;2.78;;
26634;SDS011;14490;54.208;37.686;2023-04-25T10:31:26;6.38;;;2.80;;
26634;SDS011;14490;54.208;37.686;2023-04-25T10:33:55;13.43;;;3.88;;
26634;SDS011;14490;54.208;37.686;2023-04-25T10:36:23;8.55;;;3.10;;
26634;SDS011;14490;54.208;37.686;2023-04-25T10:38:52;6.20;;;2.83;;
26634;SDS011;14490;54.208;37.686;2023-04-25T10:41:20;7.82;;;3.50;;
26634;SDS011;14490;54.208;37.686;2023-04-25T10:43:49;7.88;;;3.78;;
26634;SDS011;14490;54.208;37.686;2023-04-25T10:46:27;4.35;;;3.05;;
26634;SDS011;14490;54.208;37.686;2023-04-25T17:14:02;11.10;;;9.93;;
26634;SDS011;14490;54.208;37.686;2023-04-25T17:16:33;14.80;;;10.27;;
26634;SDS011;14490;54.208;37.686;2023-04-25T17:19:05;8.50;;;7.70;;
26634;SDS011;14490;54.208;37.686;2023-04-25T17:24:18;9.88;;;8.68;;
26634;SDS011;14490;54.208;37.686;2023-04-25T17:26:48;11.93;;;8.55;;
26634;SDS011;14490;54.208;37.686;2023-04-25T17:29:20;9.77;;;7.90;;
26634;SDS011;14490;54.208;37.686;2023-04-25T17:31:48;9.02;;;8.15;;
26634;SDS011;14490;54.208;37.686;2023-04-25T17:34:17;9.82;;;8.13;;
26634;SDS011;14490;54.208;37.686;2023-04-25T17:36:51;10.93;;;8.45;;
26634;SDS011;14490;54.208;37.686;2023-04-25T17:39:20;11.05;;;9.02;;
26634;SDS011;14490;54.208;37.686;2023-04-25T17:41:48;10.50;;;9.40;;
26634;SDS011;14490;54.208;37.686;2023-04-25T17:44:15;14.43;;;9.35;;
26634;SDS011;14490;54.208;37.686;2023-04-25T17:46:46;12.30;;;10.00;;
26634;SDS011;14490;54.208;37.686;2023-04-25T17:49:13;10.65;;;9.65;;
26634;SDS011;14490;54.208;37.686;2023-04-25T17:51:44;10.75;;;9.65;;
26634;SDS011;14490;54.208;37.686;2023-04-25T17:54:11;12.38;;;10.75;;
26634;SDS011;14490;54.208;37.686;2023-04-25T17:56:39;14.23;;;11.35;;
26634;SDS011;14490;54.208;37.686;2023-04-25T18:01:39;15.15;;;10.48;;
26634;SDS011;14490;54.208;37.686;2023-04-25T18:04:13;11.18;;;9.30;;
26634;SDS011;14490;54.208;37.686;2023-04-25T18:06:41;11.00;;;9.90;;
26634;SDS011;14490;54.208;37.686;2023-04-25T18:09:09;10.80;;;8.32;;
26634;SDS011;14490;54.208;37.686;2023-04-25T18:11:41;10.80;;;8.75;;
26634;SDS011;14490;54.208;37.686;2023-04-25T18:14:09;11.82;;;9.38;;
26634;SDS011;14490;54.208;37.686;2023-04-25T18:16:48;10.07;;;9.13;;
26634;SDS011;14490;54.208;37.686;2023-04-25T18:19:19;11.13;;;9.23;;
26634;SDS011;14490;54.208;37.686;2023-04-25T18:21:47;11.10;;;10.00;;
26634;SDS011;14490;54.208;37.686;2023-04-25T18:24:17;13.75;;;10.65;;
26634;SDS011;14490;54.208;37.686;2023-04-25T18:26:45;11.25;;;10.05;;
26634;SDS011;14490;54.208;37.686;2023-04-25T18:29:19;11.23;;;10.00;;
26634;SDS011;14490;54.208;37.686;2023-04-25T18:31:59;12.32;;;11.07;;
26634;SDS011;14490;54.208;37.686;2023-04-25T18:34:28;17.45;;;13.55;;
26634;SDS011;14490;54.208;37.686;2023-04-25T18:36:58;22.10;;;16.83;;
26634;SDS011;14490;54.208;37.686;2023-04-25T18:39:25;22.30;;;16.95;;
26634;SDS011;14490;54.208;37.686;2023-04-25T18:41:53;18.48;;;16.60;;
26634;SDS011;14490;54.208;37.686;2023-04-25T18:44:21;19.98;;;16.80;;
26634;SDS011;14490;54.208;37.686;2023-04-25T18:46:49;16.17;;;14.48;;
26634;SDS011;14490;54.208;37.686;2023-04-25T18:49:18;15.77;;;13.32;;
26634;SDS011;14490;54.208;37.686;2023-04-25T18:51:46;15.75;;;14.13;;
26634;SDS011;14490;54.208;37.686;2023-04-25T18:54:13;17.05;;;13.70;;
26634;SDS011;14490;54.208;37.686;2023-04-25T18:56:41;14.43;;;13.00;;
26634;SDS011;14490;54.208;37.686;2023-04-25T18:59:17;13.45;;;12.10;;
26634;SDS011;14490;54.208;37.686;2023-04-25T19:01:48;12.52;;;11.25;;
26634;SDS011;14490;54.208;37.686;2023-04-25T19:04:19;12.85;;;10.30;;
26634;SDS011;14490;54.208;37.686;2023-04-25T19:07:01;12.57;;;11.27;;
26634;SDS011;14490;54.208;37.686;2023-04-25T19:09:31;14.63;;;10.07;;
26634;SDS011;14490;54.208;37.686;2023-04-25T19:11:59;10.40;;;9.02;;
26634;SDS011;14490;54.208;37.686;2023-04-25T19:14:27;11.10;;;10.20;;
26634;SDS011;14490;54.208;37.686;2023-04-25T19:16:57;10.85;;;9.82;;
26634;SDS011;14490;54.208;37.686;2023-04-25T19:19:26;9.30;;;8.52;;
26634;SDS011;14490;54.208;37.686;2023-04-25T19:21:53;9.85;;;8.80;;
26634;SDS011;14490;54.208;37.686;2023-04-25T19:24:21;10.10;;;9.20;;
26634;SDS011;14490;54.208;37.686;2023-04-25T19:26:51;11.30;;;10.10;;
26634;SDS011;14490;54.208;37.686;2023-04-25T19:29:21;9.20;;;8.40;;
26634;SDS011;14490;54.208;37.686;2023-04-25T19:31:49;10.80;;;9.57;;
26634;SDS011;14490;54.208;37.686;2023-04-25T19:34:16;11.25;;;8.55;;
26634;SDS011;14490;54.208;37.686;2023-04-25T19:36:45;9.85;;;8.85;;
26634;SDS011;14490;54.208;37.686;2023-04-25T19:39:16;9.70;;;8.48;;
26634;SDS011;14490;54.208;37.686;2023-04-25T19:41:44;11.13;;;9.88;;
26634;SDS011;14490;54.208;37.686;2023-04-25T19:44:11;13.27;;;10.13;;
26634;SDS011;14490;54.208;37.686;2023-04-25T19:46:41;11.13;;;9.98;;
26634;SDS011;14490;54.208;37.686;2023-04-25T19:49:10;10.85;;;9.73;;
26634;SDS011;14490;54.208;37.686;2023-04-25T19:51:38;11.20;;;10.10;;
26634;SDS011;14490;54.208;37.686;2023-04-25T19:54:07;12.05;;;9.55;;
26634;SDS011;14490;54.208;37.686;2023-04-25T19:56:36;10.88;;;9.80;;
26634;SDS011;14490;54.208;37.686;2023-04-25T19:59:04;10.02;;;9.13;;
26634;SDS011;14490;54.208;37.686;2023-04-25T20:01:32;11.20;;;9.88;;
26634;SDS011;14490;54.208;37.686;2023-04-25T20:03:59;10.98;;;9.18;;
26634;SDS011;14490;54.208;37.686;2023-04-25T20:06:33;12.77;;;9.57;;
26634;SDS011;14490;54.208;37.686;2023-04-25T20:09:23;10.27;;;9.27;;
26634;SDS011;14490;54.208;37.686;2023-04-25T20:11:50;11.10;;;9.90;;
26634;SDS011;14490;54.208;37.686;2023-04-25T20:14:18;9.65;;;8.82;;
26634;SDS011;14490;54.208;37.686;2023-04-25T20:16:46;10.85;;;9.85;;
26634;SDS011;14490;54.208;37.686;2023-04-25T20:19:13;12.18;;;9.35;;
26634;SDS011;14490;54.208;37.686;2023-04-25T20:21:41;11.60;;;9.13;;
26634;SDS011;14490;54.208;37.686;2023-04-25T20:24:08;10.88;;;9.85;;
26634;SDS011;14490;54.208;37.686;2023-04-25T20:26:38;10.90;;;9.75;;
26634;SDS011;14490;54.208;37.686;2023-04-25T20:29:05;14.52;;;10.40;;
26634;SDS011;14490;54.208;37.686;2023-04-25T20:31:34;12.18;;;10.95;;
26634;SDS011;14490;54.208;37.686;2023-04-25T20:34:21;11.00;;;9.90;;
26634;SDS011;14490;54.208;37.686;2023-04-25T20:36:56;11.02;;;10.05;;
26634;SDS011;14490;54.208;37.686;2023-04-25T20:39:24;12.13;;;10.82;;
26634;SDS011;14490;54.208;37.686;2023-04-25T20:41:54;11.15;;;10.02;;
26634;SDS011;14490;54.208;37.686;2023-04-25T20:44:22;11.27;;;9.88;;
26634;SDS011;14490;54.208;37.686;2023-04-25T20:46:50;13.95;;;10.82;;
26634;SDS011;14490;54.208;37.686;2023-04-25T20:49:18;12.50;;;10.90;;
26634;SDS011;14490;54.208;37.686;2023-04-25T20:51:48;12.48;;;11.23;;
26634;SDS011;14490;54.208;37.686;2023-04-25T20:54:15;12.55;;;11.25;;
26634;SDS011;14490;54.208;37.686;2023-04-25T20:56:43;12.25;;;10.95;;
26634;SDS011;14490;54.208;37.686;2023-04-25T20:59:12;12.75;;;10.65;;
26634;SDS011;14490;54.208;37.686;2023-04-25T21:01:39;14.18;;;11.55;;
26634;SDS011;14490;54.208;37.686;2023-04-25T21:04:07;15.30;;;11.85;;
26634;SDS011;14490;54.208;37.686;2023-04-25T21:06:34;13.25;;;11.93;;
26634;SDS011;14490;54.208;37.686;2023-04-25T21:09:02;13.80;;;11.93;;